首页
METAR-TAF:

METAR-TAF

机场 :

North Platte, 內布拉斯加州, 美国

纬度: 41-07-19N, 经度: 100-40-06W, 海拔: 846米

当前天气观测

该预报发布于18分钟前的14:53 UTC
风速5节,风向
温度 17°C
湿度 82%
气压 1015 hPa
能見度: 16.1公里
天空无云

METAR: KLBF 281453Z AUTO 18005KT 10SM CLR 17/14 A2996 RMK AO2 SLP126 60004 T01720139 53012

时间: 10:11 (15:11 UTC)

预报

该预报发布于2小时和18分钟前的12:53 UTC
预报有效从28日的 13点(UTC)到 29日的 12点(UTC)
风速8节,风向南转南东
能見度: 10公里
多云层高于10000英尺
从 28日的 1500点(UTC)
风速13节,风向南转南东
能見度: 10公里
多云层高于2000英尺
从 28日的 2100点(UTC)
风速11节,风向南转南东
能見度: 10公里
多云层高于3500英尺, 积雨云.
附近有雷暴
从 29日的 0100点(UTC)
风速9节,风向南转南东
能見度: 10公里
多云层高于6000英尺
从 29日的 0900点(UTC)
风速5节,风向
能見度: 10公里
散云层高于4000英尺
多云层高于8000英尺

TAF: KLBF 281253Z 2813/2912 15008KT P6SM BKN100 FM281500 15013KT P6SM BKN020 FM282100 15011KT P6SM VCTS BKN035CB FM290100 16009KT P6SM BKN060 FM290900 17005KT P6SM SCT040 BKN080

超过4000个机场的气象观测和天气预报(METAR&TAF报告)。

可查询的气象台以黄色和红色小点在地图上表示。

将鼠标移到小点上方,可查看气象台名称。

然后点击查看天气观测和预报。

如需切换地图:点击带黑十字的绿色按钮放大地图;点击带横线的绿色按钮缩小地图;或者点击绿色箭头查看邻近地区的地图。


METAR-TAF: